Date,TemperatureHighF,TemperatureAvgF,TemperatureLowF,DewpointHighF,DewpointAvgF,DewpointLowF,HumidityHigh,HumidityAvg,HumidityLow,PressureMaxIn,PressureMinIn,WindSpeedMaxMPH,WindSpeedAvgMPH,GustSpeedMaxMPH,PrecipitationSumIn
2013-1-1,17.0,7.5,0.0,13.2,4.6,-1.2,87,40,61,30.29,30.06,17,2,17,0.00
2013-1-2,22.5,20.8,16.4,19.4,17.5,12.4,89,87,84,30.09,30.00,10,2,10,0.00
2013-1-3,25.7,19.5,12.9,20.5,12.5,7.9,88,75,52,30.22,29.92,17,4,17,0.00
2013-1-4,36.2,23.6,16.1,25.1,17.5,12.8,89,78,62,30.19,29.94,18,3,18,0.00
2013-1-5,35.4,25.4,17.5,25.7,20.6,14.2,91,82,64,30.17,29.91,17,2,17,0.02
2013-1-6,28.5,21.8,16.0,21.0,15.8,11.4,85,78,64,30.23,30.02,14,2,15,0.00
2013-1-7,40.6,30.0,20.0,30.2,22.8,14.8,83,75,60,30.05,29.74,21,4,21,0.09
2013-1-8,36.2,28.5,16.7,30.6,24.6,13.9,91,85,78,30.05,29.72,20,3,20,0.01
2013-1-9,34.4,30.8,24.3,30.6,24.1,19.1,88,76,66,30.37,29.75,36,6,37,0.01
2013-1-10,42.9,33.8,19.8,32.6,26.1,16.7,91,74,53,30.39,29.81,11,1,11,0.36
2013-1-11,38.3,36.7,34.0,36.7,34.9,31.6,94,93,91,29.81,29.36,8,1,8,0.53
2013-1-12,40.5,24.4,10.0,38.9,19.5,4.2,94,81,68,30.08,29.32,24,6,24,0.13
2013-1-13,12.8,9.0,5.1,7.5,3.6,0.0,83,78,70,30.24,30.05,19,4,19,0.00
2013-1-14,14.1,8.5,3.7,4.3,2.0,-0.9,83,74,61,30.42,30.24,15,2,15,0.00
2013-1-15,27.2,17.6,8.4,17.9,11.0,4.2,92,75,59,30.37,29.84,26,4,28,0.00
2013-1-16,27.9,19.8,2.2,25.2,11.3,-8.4,91,70,51,30.32,29.57,28,6,29,0.00
2013-1-17,12.8,2.5,-3.5,0.8,-5.3,-10.4,82,69,56,30.46,30.23,10,2,16,0.00
2013-1-18,22.4,17.1,2.8,19.7,13.6,-4.8,89,86,74,30.43,29.83,9,1,9,0.00
2013-1-19,29.7,18.1,0.1,26.6,14.3,-5.2,92,85,72,30.18,29.60,36,6,36,0.00
2013-1-20,5.7,-3.2,-9.4,0.5,-9.0,-13.6,83,76,67,30.42,30.07,29,5,29,0.00
2013-1-21,-4.7,-12.7,-18.3,-13.1,-19.4,-23.0,92,71,64,30.38,30.29,21,4,21,0.00
2013-1-22,3.9,-7.7,-19.9,-6.2,-14.9,-25.2,78,70,61,30.46,30.31,14,2,14,0.00
2013-1-23,8.3,-2.0,-11.1,0.2,-9.1,-18.1,81,71,60,30.74,30.20,25,5,27,0.00
2013-1-24,10.4,-2.2,-15.6,6.6,-8.3,-22.8,86,75,64,30.80,30.30,17,3,17,0.00
2013-1-25,20.9,12.7,5.3,11.5,7.0,-0.1,88,78,63,30.39,29.99,18,4,18,0.00
2013-1-26,21.9,12.6,-0.9,15.3,7.0,-5.1,98,78,68,30.45,30.26,17,2,17,0.00
2013-1-27,33.4,24.8,9.9,29.9,19.4,6.0,91,80,64,30.28,29.92,15,3,15,0.00
2013-1-28,33.6,31.2,25.1,30.4,28.5,22.9,92,90,84,29.95,29.75,10,1,10,0.01
2013-1-29,37.4,32.2,24.4,32.4,28.6,19.1,93,87,78,29.84,29.55,18,3,18,0.08
2013-1-30,27.6,16.5,8.1,20.0,10.5,1.8,86,77,67,29.81,29.66,19,5,21,0.00
2013-1-31,9.6,5.3,-4.4,3.0,-2.0,-11.1,78,72,63,30.26,29.73,20,6,28,0.00
2013-2-1,5.2,-5.4,-17.0,-8.0,-14.3,-23.6,73,65,52,30.35,30.22,15,3,15,0.00
2013-2-2,14.1,4.6,-6.5,3.0,-4.8,-13.7,73,64,50,30.27,30.03,12,3,13,0.00
2013-2-3,14.9,6.4,-4.1,3.5,-1.7,-9.5,79,69,50,30.13,29.99,18,4,18,0.00
2013-2-4,16.6,3.0,-11.5,9.6,-5.5,-15.7,87,68,49,30.15,29.83,11,1,18,0.00
2013-2-5,24.7,14.9,7.5,15.3,8.5,1.1,89,76,48,30.15,29.72,18,3,18,0.01
2013-2-6,25.7,18.3,11.0,22.4,13.1,3.2,90,80,68,30.19,30.13,18,4,22,0.00
2013-2-7,26.1,23.8,18.5,22.8,20.7,14.5,90,87,82,30.39,30.18,22,7,22,0.00
2013-2-8,29.5,20.2,11.4,20.6,15.2,8.0,88,81,67,30.48,30.34,15,3,15,0.00
2013-2-9,29.8,25.8,21.9,26.8,21.6,14.9,92,84,72,30.36,30.05,18,2,18,0.00
2013-2-10,32.5,29.1,27.2,30.7,26.6,24.4,93,90,86,30.07,29.40,33,8,36,0.00
2013-2-11,32.5,25.8,18.2,30.7,22.0,14.2,93,85,78,30.00,29.40,22,5,23,0.00
2013-2-12,33.7,23.2,13.3,25.2,18.6,10.2,88,82,69,30.00,29.75,16,3,16,0.00
2013-2-13,36.9,29.1,19.7,29.9,24.4,16.8,90,82,73,29.76,29.65,13,1,13,0.01
2013-2-14,29.3,22.3,12.7,23.1,15.0,5.5,88,74,53,30.18,29.71,18,3,18,0.00
2013-2-15,19.0,9.4,-2.5,6.8,1.5,-6.5,84,70,53,30.33,30.16,20,3,20,0.00
2013-2-16,22.9,7.7,-2.3,9.3,0.6,-6.5,92,74,48,30.32,30.22,10,2,10,0.00
2013-2-17,27.9,15.0,-2.4,18.9,8.6,-5.9,89,76,65,30.25,29.79,19,3,19,0.00
2013-2-18,31.0,25.8,11.6,26.4,20.5,4.9,90,80,71,29.84,29.56,31,4,34,0.00
2013-2-19,17.1,5.4,-1.0,4.7,-2.9,-8.6,74,68,56,30.42,29.68,37,7,37,0.00
2013-2-20,27.6,9.1,-4.3,10.3,-1.4,-10.1,79,63,43,30.59,30.38,15,2,15,0.00
2013-2-21,26.7,17.8,8.5,24.1,12.9,-4.5,90,81,61,30.61,30.28,33,7,33,0.00
2013-2-22,30.8,28.3,26.2,28.5,25.8,23.0,92,90,88,30.34,29.88,31,10,33,0.00
2013-2-23,34.4,29.3,22.0,29.0,25.6,18.7,91,86,76,29.97,29.84,10,1,10,0.00
2013-2-24,41.9,29.9,20.8,33.4,25.7,18.1,91,85,68,30.12,29.94,6,0,7,0.13
2013-2-25,39.2,26.4,16.8,28.6,21.3,14.4,91,81,61,30.16,30.08,14,1,14,0.08
2013-2-26,42.4,28.1,15.9,34.0,23.5,13.1,90,83,68,30.16,30.04,16,3,16,0.03
2013-2-27,41.2,30.6,26.1,29.8,25.1,21.8,88,80,62,30.13,29.99,17,4,17,0.00
2013-2-28,36.7,28.4,21.3,24.5,20.8,11.2,80,73,58,30.38,30.11,15,5,18,0.00
2013-3-1,28.9,20.3,14.1,17.6,11.6,2.9,74,68,57,30.51,30.38,18,5,18,0.00
2013-3-2,34.4,19.8,9.1,21.2,8.7,-1.9,78,62,49,30.46,30.27,9,3,9,0.00
2013-3-3,37.4,22.7,11.2,22.5,14.7,6.7,84,72,52,30.29,30.16,17,4,17,0.00
2013-3-4,34.4,27.7,23.9,25.4,21.1,17.0,86,76,59,30.19,30.14,28,11,28,0.00
2013-3-5,29.3,25.9,21.7,24.9,22.0,17.3,91,85,77,30.35,30.15,26,8,26,0.00
2013-3-6,31.9,22.2,13.1,21.1,15.4,9.7,87,75,60,30.44,30.33,14,3,14,0.20
2013-3-7,37.4,24.0,12.2,24.9,17.3,8.0,86,76,56,30.50,30.42,17,5,17,0.04
2013-3-8,40.2,28.3,16.5,29.8,23.2,13.8,91,82,62,30.44,30.21,15,1,15,0.01
2013-3-9,33.7,31.4,26.7,31.6,29.4,23.9,93,92,89,30.26,29.81,14,3,14,0.03
2013-3-10,34.4,32.0,26.9,31.9,28.7,22.7,93,87,81,30.08,29.82,15,2,15,0.05
2013-3-11,33.2,26.4,24.5,24.7,21.5,19.5,92,82,67,30.07,29.80,13,3,14,0.00
2013-3-12,25.5,22.3,17.9,20.9,16.0,9.5,87,77,63,30.19,29.82,18,4,19,0.00
2013-3-13,38.2,23.3,9.9,23.8,12.4,3.6,82,64,42,30.38,30.17,16,2,16,0.31
2013-3-14,37.5,27.0,11.6,30.7,20.9,7.9,87,78,65,30.30,30.00,15,2,15,0.20
2013-3-15,36.3,27.2,19.9,30.5,20.1,13.4,89,75,57,30.10,30.00,18,6,18,0.00
2013-3-16,24.6,16.4,3.2,17.5,9.1,-3.3,89,73,57,30.34,30.06,22,4,22,0.00
2013-3-17,30.7,15.4,-0.6,21.0,7.1,-6.7,81,70,53,30.39,30.02,19,4,20,0.04
2013-3-18,31.7,26.0,21.4,29.0,21.6,13.2,90,84,60,30.06,29.55,22,4,31,0.00
2013-3-19,26.0,18.4,12.7,21.8,14.2,5.9,90,84,64,30.09,29.57,33,14,40,0.00
2013-3-20,26.2,14.9,7.4,11.9,6.0,2.0,78,68,54,30.20,30.08,28,7,28,0.00
2013-3-21,33.8,19.9,7.2,22.6,12.4,1.9,82,73,58,30.20,30.09,10,2,12,0.19
2013-3-22,39.6,26.3,16.7,29.7,19.5,10.6,92,75,63,30.16,30.11,11,2,11,0.16
2013-3-23,42.4,28.7,17.7,31.0,23.6,15.0,91,82,60,30.24,30.16,11,2,13,0.02
2013-3-24,32.3,29.1,21.8,27.5,24.1,16.9,88,82,73,30.22,30.10,15,2,15,0.01
2013-3-25,39.4,29.7,21.4,30.1,22.3,15.7,81,74,62,30.25,30.10,15,3,15,0.01
2013-3-26,41.1,33.9,28.9,30.3,25.8,22.1,86,73,59,30.32,30.25,9,1,11,0.00
2013-3-27,47.8,36.8,28.0,31.0,23.9,19.5,73,60,40,30.37,30.32,8,1,9,0.00
2013-3-28,51.6,33.5,20.5,31.5,22.5,16.4,87,66,37,30.39,30.31,7,0,7,0.00
2013-3-29,56.2,35.3,22.5,33.8,25.0,18.4,86,68,36,30.34,30.11,7,0,9,0.00
2013-3-30,54.4,40.8,32.6,44.0,33.8,24.7,92,78,42,30.15,29.77,13,2,14,0.45
2013-3-31,41.9,34.0,23.8,30.0,22.6,11.1,85,63,45,30.07,29.71,24,7,26,0.01
2013-4-1,36.6,26.8,18.2,17.0,13.1,9.9,75,57,38,30.22,30.07,28,6,28,0.00
2013-4-2,42.7,28.7,18.8,20.0,13.9,8.4,76,56,34,30.40,30.20,20,5,20,0.00
2013-4-3,46.4,31.5,17.7,30.1,18.0,6.1,74,58,35,30.45,30.01,16,2,16,0.00
2013-4-4,48.4,39.5,30.3,32.0,26.9,18.1,87,62,39,30.21,29.95,23,4,24,0.00
2013-4-5,41.2,31.1,22.4,26.7,20.8,14.2,86,66,52,30.34,30.13,15,4,15,0.00
2013-4-6,33.9,32.2,28.8,31.9,30.1,24.1,93,92,86,30.16,29.66,18,5,21,0.13
2013-4-7,44.2,36.1,32.3,36.3,32.1,30.5,93,86,69,29.97,29.72,7,0,10,0.74
2013-4-8,38.4,34.7,32.2,35.3,32.2,30.1,92,90,87,30.11,29.86,11,2,11,0.30
2013-4-9,45.7,36.6,30.8,36.0,30.7,26.9,92,79,61,30.28,30.09,18,5,18,0.05
2013-4-10,41.7,34.5,28.6,30.7,24.7,20.0,92,68,52,30.32,30.17,19,5,20,0.00
2013-4-11,33.2,30.8,28.7,28.7,26.7,22.3,92,84,78,30.20,29.90,40,17,40,0.00
2013-4-12,32.2,29.1,24.5,29.6,26.8,22.0,93,91,88,29.90,29.82,28,10,36,0.07
2013-4-13,39.6,28.7,21.2,32.0,24.9,18.2,90,86,74,30.03,29.86,8,1,8,0.10
2013-4-14,41.7,32.1,21.1,33.9,27.6,18.0,93,84,68,30.06,29.73,32,8,32,0.00
2013-4-15,38.0,34.8,32.5,33.7,32.1,30.3,93,90,83,29.86,29.58,29,6,29,0.41
2013-4-16,43.8,37.1,31.6,32.8,30.9,29.0,92,79,60,30.42,29.84,20,3,20,0.16
2013-4-17,37.3,33.7,30.3,33.8,30.4,28.0,96,88,78,30.47,30.14,22,6,22,0.00
2013-4-18,37.6,32.9,30.1,33.6,30.5,27.8,93,91,84,30.19,29.53,17,3,17,0.21
2013-4-19,33.6,29.0,20.8,29.6,24.1,15.0,93,82,63,30.00,29.49,30,4,30,0.01
2013-4-20,39.8,25.7,11.8,28.0,17.0,7.5,92,70,48,30.41,29.95,13,2,13,0.63
2013-4-21,37.8,31.6,22.5,34.0,27.9,18.7,92,86,75,30.42,30.11,9,1,9,0.26
2013-4-22,43.0,35.6,30.5,34.5,31.2,28.0,93,85,58,30.30,30.12,14,1,14,0.09
2013-4-23,46.7,36.8,31.2,30.8,26.7,20.6,92,69,40,30.25,30.03,20,3,20,0.42
2013-4-24,46.2,34.3,25.9,33.8,26.5,19.4,92,74,50,30.04,29.91,13,2,13,0.01
2013-4-25,45.4,37.2,29.7,34.9,29.7,27.0,92,75,51,30.18,29.96,20,4,20,0.00
2013-4-26,56.9,42.5,33.1,44.5,35.6,27.2,89,77,58,30.17,30.07,10,1,10,0.02
2013-4-27,58.2,42.8,30.3,44.6,36.0,28.0,96,78,56,30.17,29.91,9,1,10,0.00
2013-4-28,62.7,46.1,34.9,50.7,40.2,32.1,92,80,60,29.94,29.71,10,1,12,0.00
2013-4-29,65.0,49.6,38.7,43.9,37.7,30.7,91,66,37,29.84,29.68,19,3,19,0.00
2013-4-30,71.8,51.9,39.5,52.3,40.8,31.0,93,71,29,29.89,29.45,17,4,21,0.23
2013-5-1,53.0,42.6,36.8,39.1,30.5,26.1,73,62,50,30.56,29.88,15,4,15,0.00
2013-5-2,43.9,36.4,31.7,33.8,28.0,24.6,87,71,56,30.61,30.53,14,3,14,0.00
2013-5-3,35.7,32.7,30.9,31.6,29.5,27.3,92,88,75,30.56,30.32,15,3,16,0.10
2013-5-4,39.9,35.6,32.3,37.8,33.3,30.1,93,91,86,30.33,30.28,14,2,14,0.24
2013-5-5,52.6,40.1,34.6,44.2,36.9,32.0,93,88,68,30.32,30.18,8,1,8,0.02
2013-5-6,62.5,44.4,31.8,47.5,38.3,29.8,92,80,55,30.20,30.07,7,1,7,0.00
2013-5-7,66.9,50.6,38.2,51.4,43.2,35.8,92,77,56,30.12,29.99,14,2,15,0.00
2013-5-8,70.3,53.7,38.3,53.8,44.6,35.9,92,73,46,30.07,30.00,15,1,15,0.00
2013-5-9,52.2,43.6,34.8,46.2,37.5,29.3,88,79,63,30.27,30.06,18,5,18,0.00
2013-5-10,48.7,39.8,34.8,35.5,30.8,25.1,83,70,53,30.27,29.94,21,6,21,0.00
2013-5-11,50.9,42.3,37.0,40.3,30.8,24.9,84,64,45,30.17,29.93,26,8,35,0.00
2013-5-12,58.7,43.4,30.6,28.6,23.0,19.2,67,46,26,30.22,30.12,23,5,23,0.00
2013-5-13,56.2,41.7,29.2,35.8,27.1,21.5,77,58,33,30.18,29.74,18,2,18,0.00
2013-5-14,58.2,43.5,32.7,47.2,35.9,29.0,88,75,56,29.84,29.46,20,2,20,0.05
2013-5-15,81.6,65.8,41.4,51.2,45.8,36.9,89,52,26,29.83,29.57,19,7,26,0.00
2013-5-16,65.3,54.8,46.5,43.0,39.5,35.9,68,57,40,30.08,29.79,17,5,17,0.00
2013-5-17,56.7,48.3,42.0,42.2,38.5,36.0,81,69,57,30.17,30.07,28,8,28,0.00
2013-5-18,49.0,44.0,40.5,46.8,41.1,36.6,92,90,76,30.11,29.92,17,3,17,0.60
2013-5-19,54.5,48.4,42.6,51.6,45.9,40.4,93,91,87,29.95,29.77,35,8,35,0.12
2013-5-20,50.8,44.9,42.9,46.5,42.7,40.7,93,92,92,29.83,29.64,40,13,40,1.04
2013-5-21,46.7,43.9,42.2,44.7,42.0,40.0,93,93,92,29.87,29.72,33,9,33,1.24
2013-5-22,53.9,46.4,41.4,46.7,42.5,37.5,93,87,72,30.13,29.85,24,5,24,0.08
2013-5-23,55.7,43.9,35.5,42.7,36.4,32.0,90,75,53,30.41,30.06,14,3,14,0.00
2013-5-24,63.2,46.5,30.7,46.0,35.7,27.9,90,68,44,30.47,30.30,11,1,11,0.00
2013-5-25,57.2,46.6,41.2,41.7,37.0,33.2,80,69,51,30.38,30.32,25,6,25,0.00
2013-5-26,56.9,48.3,40.9,44.0,36.6,32.5,74,64,51,30.37,30.19,26,6,26,0.00
2013-5-27,56.8,48.1,39.3,41.5,36.9,33.4,80,65,50,30.22,29.93,25,6,25,0.00
2013-5-28,61.4,49.0,40.8,45.2,39.7,35.7,84,71,53,29.96,29.77,24,5,24,0.00
2013-5-29,77.9,54.8,42.0,61.2,47.8,38.1,90,78,51,29.84,29.72,14,2,15,0.02
2013-5-30,62.0,52.7,46.2,59.0,49.6,43.4,91,89,83,29.78,29.58,22,4,23,0.12
2013-5-31,69.7,54.7,46.7,61.5,50.7,43.9,91,87,67,29.63,29.52,15,2,19,0.20
2013-6-1,50.5,47.8,44.4,47.7,45.1,41.9,91,90,89,29.98,29.61,16,2,16,0.16
2013-6-2,60.3,49.3,40.4,46.8,41.0,37.7,91,74,52,30.08,29.95,13,2,13,0.00
2013-6-3,68.2,52.4,36.3,44.2,38.3,33.1,89,61,36,30.14,30.03,11,2,11,0.00
2013-6-4,59.2,51.4,43.4,39.8,36.5,30.7,80,58,45,30.20,30.13,20,4,20,0.00
2013-6-5,52.2,45.1,41.9,45.1,40.5,32.0,91,84,61,30.19,30.10,21,4,21,0.26
2013-6-6,57.2,47.6,42.9,50.0,42.9,39.7,91,84,69,30.14,30.08,24,5,24,0.02
2013-6-7,70.3,52.5,40.3,50.5,43.1,37.6,95,72,43,30.10,29.97,7,0,7,0.00
2013-6-8,69.4,58.8,45.3,49.2,42.7,39.5,82,57,39,30.00,29.96,16,3,17,0.00
2013-6-9,56.5,50.7,45.0,51.3,44.8,39.1,92,81,61,30.02,29.89,21,3,21,0.37
2013-6-10,65.2,51.1,43.7,55.4,46.5,40.7,91,85,66,29.90,29.84,6,1,8,0.00
2013-6-11,80.5,60.4,43.2,64.4,52.4,40.5,91,76,52,29.89,29.83,11,1,11,0.00
2013-6-12,83.0,64.6,50.3,62.1,52.8,47.3,92,67,44,29.91,29.80,17,1,17,0.00
2013-6-13,77.5,63.2,50.6,56.2,50.7,45.4,89,65,42,30.14,29.89,14,2,14,0.00
2013-6-14,67.4,56.0,46.2,52.3,45.6,38.8,89,69,51,30.18,29.96,18,4,20,0.00
2013-6-15,62.9,51.2,45.4,49.2,42.6,37.9,90,73,51,30.00,29.82,13,1,13,0.07
2013-6-16,82.3,63.3,46.3,61.7,52.7,40.4,90,70,40,29.87,29.78,48,4,48,0.16
2013-6-17,54.9,48.9,41.8,50.2,44.1,37.6,91,83,68,30.14,29.84,24,5,24,0.10
2013-6-18,73.5,55.7,37.6,49.8,40.9,34.6,89,61,37,30.21,30.08,11,1,11,0.00
2013-6-19,76.8,56.7,42.0,60.0,45.9,38.4,88,68,46,30.10,29.96,6,1,7,0.00
2013-6-20,62.7,54.7,47.7,59.4,51.5,44.8,92,89,82,30.10,29.99,16,2,16,0.83
2013-6-21,60.4,53.8,47.2,57.5,50.9,44.4,91,90,89,30.12,29.75,44,3,44,1.71
2013-6-22,58.0,52.1,47.8,55.1,49.3,44.9,90,90,89,30.12,29.96,15,3,17,0.09
2013-6-23,59.7,52.1,46.3,56.4,49.3,43.7,94,90,85,29.97,29.70,27,2,27,0.14
2013-6-24,85.2,66.8,46.0,68.7,57.2,43.5,92,73,43,29.91,29.77,8,1,9,0.00
2013-6-25,91.0,72.4,59.0,74.0,64.1,55.8,90,76,51,29.81,29.72,7,1,8,0.00
2013-6-26,68.4,57.7,49.3,65.0,54.2,46.4,92,88,78,29.79,29.68,15,1,15,0.57
2013-6-27,86.5,68.2,49.9,68.5,57.9,46.9,91,73,45,29.82,29.65,31,4,32,0.21
2013-6-28,69.8,59.1,50.3,65.3,55.8,47.8,92,89,70,29.83,29.65,14,1,16,0.58
2013-6-29,75.5,65.3,55.8,63.3,56.7,51.8,91,75,48,29.99,29.80,16,1,16,0.01
2013-6-30,83.7,68.8,52.6,63.5,54.5,47.3,86,62,35,30.10,29.98,11,1,11,0.00
2013-7-1,71.3,61.7,50.6,56.2,48.8,41.6,83,64,47,30.27,30.09,24,5,24,0.00
2013-7-2,72.0,57.2,44.5,50.8,43.0,36.9,89,61,40,30.23,30.12,11,1,12,0.00
2013-7-3,74.9,61.6,46.5,53.8,45.6,39.5,85,57,38,30.12,29.97,7,1,8,0.00
2013-7-4,81.8,62.6,48.4,65.2,52.7,44.7,88,72,45,29.99,29.86,8,1,8,0.00
2013-7-5,79.5,66.1,55.0,65.6,58.2,52.1,90,77,56,29.88,29.77,9,1,9,0.00
2013-7-6,79.4,70.0,55.0,70.8,64.1,52.1,92,82,66,29.88,29.79,17,1,21,0.69
2013-7-7,63.3,56.7,49.8,60.0,53.7,47.3,92,90,88,30.03,29.84,18,4,21,0.57
2013-7-8,64.4,55.6,49.2,59.5,52.1,46.5,92,88,78,30.08,29.96,13,2,14,0.00
2013-7-9,62.6,54.3,48.2,60.2,51.6,45.6,92,90,88,30.02,29.79,15,1,15,0.13
2013-7-10,81.9,68.5,56.8,62.7,57.4,53.9,92,70,43,30.01,29.85,19,4,21,0.00
2013-7-11,86.8,66.4,54.1,66.5,57.5,51.2,91,75,45,30.10,29.96,8,0,8,0.00
2013-7-12,76.8,65.5,56.1,64.6,58.0,52.9,92,78,57,30.01,29.88,10,1,10,0.00
2013-7-13,77.4,68.1,60.8,70.4,63.5,56.1,92,85,69,30.08,29.93,14,2,17,0.64
2013-7-14,77.6,66.5,58.3,69.8,61.9,55.4,92,85,65,30.22,30.07,16,1,16,0.00
2013-7-15,79.1,67.2,58.9,71.7,63.0,56.1,92,87,71,30.26,30.17,12,2,14,0.07
2013-7-16,89.7,72.9,54.6,75.7,64.7,52.0,91,77,54,30.19,30.08,13,1,16,0.00
2013-7-17,91.2,74.3,63.6,76.2,67.2,60.6,90,80,51,30.17,30.06,14,2,18,0.17
2013-7-18,78.0,67.8,59.0,69.0,63.1,56.1,91,85,66,30.07,29.60,21,2,22,0.14
2013-7-19,83.4,74.0,64.6,69.1,62.4,55.0,90,69,42,29.82,29.58,24,5,24,0.09
2013-7-20,72.8,62.4,51.6,57.6,51.4,47.3,88,68,51,30.04,29.82,14,3,14,0.00
2013-7-21,68.5,58.7,50.3,57.7,51.2,46.7,92,77,50,30.04,29.84,19,5,23,0.00
2013-7-22,84.8,65.3,52.8,70.9,56.7,48.2,89,75,49,29.85,29.58,25,4,26,0.00
2013-7-23,74.8,62.6,53.6,58.8,52.1,49.5,88,70,46,30.03,29.81,18,1,18,0.00
2013-7-24,76.6,65.4,53.3,61.2,56.2,49.4,88,73,53,30.06,29.91,17,2,18,0.00
2013-7-25,81.0,62.9,53.2,68.5,57.6,50.6,92,83,56,29.92,29.85,21,2,21,0.10
2013-7-26,60.1,54.0,46.0,57.0,50.2,43.0,92,87,74,30.11,29.86,19,3,19,0.34
2013-7-27,58.5,52.4,45.4,54.1,48.7,42.6,92,87,79,30.06,29.88,16,2,18,0.15
2013-7-28,74.5,59.2,52.1,62.7,52.2,49.3,91,79,52,30.04,29.92,12,2,22,0.00
2013-7-29,77.3,62.7,48.8,61.2,53.8,45.9,91,74,47,30.11,30.03,7,1,11,0.00
2013-7-30,76.2,64.0,57.3,66.3,59.1,53.4,90,84,64,30.12,30.00,11,1,12,0.06
2013-7-31,79.9,68.5,60.3,65.9,57.3,52.2,92,70,41,30.00,29.90,18,4,21,0.00
2013-8-1,78.9,67.4,59.0,61.3,56.4,52.9,89,69,47,29.93,29.81,16,3,19,0.11
2013-8-2,79.6,65.6,53.2,60.7,54.4,50.5,91,69,42,30.03,29.81,17,3,18,0.01
2013-8-3,77.9,64.2,56.0,61.6,53.8,49.7,82,70,47,30.21,30.03,18,3,18,0.00
2013-8-4,80.0,63.8,50.8,62.6,53.8,46.8,88,71,46,30.24,30.00,8,1,8,0.00
2013-8-5,65.1,59.7,56.8,61.4,56.5,53.2,92,89,85,30.00,29.78,8,1,9,0.24
2013-8-6,76.2,64.3,54.7,67.1,59.7,51.5,92,85,68,29.80,29.71,7,0,7,0.01
2013-8-7,77.1,65.7,57.0,60.1,54.3,50.5,90,69,40,30.00,29.75,18,3,18,0.00
2013-8-8,70.1,61.9,56.0,62.1,55.7,51.9,90,80,68,30.04,29.94,13,1,14,0.03
2013-8-9,71.6,62.3,51.9,58.1,54.0,48.8,92,75,56,30.10,29.95,24,3,24,0.00
2013-8-10,79.1,65.6,56.0,64.5,56.8,52.2,87,74,53,30.16,30.05,8,1,11,0.00
2013-8-11,84.1,64.5,53.2,65.1,57.2,49.7,90,78,46,30.08,29.98,8,0,8,0.00
2013-8-12,80.7,64.5,51.0,62.3,55.8,47.9,89,74,48,30.10,29.95,20,4,22,0.00
2013-8-13,74.0,60.1,50.1,60.6,52.3,47.0,92,76,55,30.21,30.10,9,1,10,0.00
2013-8-14,75.1,60.2,45.1,61.7,51.1,42.3,92,74,43,30.22,30.07,11,1,11,0.01
2013-8-15,81.3,64.7,50.5,64.1,54.9,47.4,92,72,43,30.10,30.04,8,1,9,0.00
2013-8-16,85.5,67.9,52.6,67.1,57.6,49.2,90,71,47,30.14,30.08,13,1,13,0.00
2013-8-17,82.2,70.0,57.5,63.5,58.2,54.0,89,68,46,30.16,30.03,16,2,18,0.00
2013-8-18,82.0,70.2,57.9,64.4,58.4,54.1,88,68,46,30.09,29.92,15,2,17,0.00
2013-8-19,85.7,73.6,63.2,72.8,65.0,58.6,90,75,62,29.93,29.82,16,2,16,0.08
2013-8-20,90.7,77.1,64.3,77.3,69.1,60.7,89,77,59,29.88,29.76,15,2,16,0.01
2013-8-21,93.2,79.0,68.0,75.3,65.5,50.8,88,66,31,30.00,29.73,18,4,18,0.01
2013-8-22,83.0,66.6,57.3,61.4,53.1,49.7,80,63,38,30.14,30.00,8,1,14,0.00
2013-8-23,80.4,65.2,51.7,65.6,56.5,47.8,88,75,49,30.18,30.06,12,2,12,0.00
2013-8-24,82.1,70.4,61.1,69.9,62.9,55.9,86,77,61,30.09,29.85,18,2,18,0.00
2013-8-25,94.9,81.8,66.7,80.7,72.7,63.0,88,75,55,29.92,29.84,16,4,26,1.35
2013-8-26,89.0,73.6,64.8,77.1,67.1,60.5,88,81,61,29.94,29.84,15,1,20,1.11
2013-8-27,82.0,70.1,63.8,72.8,64.5,59.2,86,82,69,29.94,29.81,13,2,13,0.04
2013-8-28,86.8,70.8,61.3,77.3,64.9,56.4,85,82,68,30.03,29.94,7,0,9,0.00
2013-8-29,76.2,68.8,63.3,70.9,63.6,58.2,85,84,81,30.01,29.74,22,1,29,0.86
2013-8-30,85.8,72.7,65.2,72.2,64.9,60.5,86,77,56,29.95,29.80,13,2,13,0.00
2013-8-31,85.1,70.7,59.6,73.0,63.4,54.4,86,78,62,29.91,29.67,14,1,21,0.06
2013-9-1,79.5,66.2,57.2,66.0,59.6,52.7,86,79,61,29.98,29.63,21,3,21,0.07
2013-9-2,71.5,57.9,49.8,57.7,51.2,45.9,87,79,59,30.10,29.97,13,2,13,0.00
2013-9-3,77.3,62.9,47.9,62.9,55.1,43.6,87,77,58,30.05,29.89,18,2,18,0.00
2013-9-4,72.2,62.9,51.2,61.9,55.4,47.2,86,77,59,30.20,29.92,21,4,21,0.00
2013-9-5,77.7,60.9,49.2,63.0,53.0,44.0,86,76,56,30.30,30.12,11,2,11,0.00
2013-9-6,85.2,67.9,54.3,73.0,61.4,49.9,86,80,63,30.13,29.83,9,1,9,0.00
2013-9-7,83.8,68.7,59.2,71.8,62.3,54.3,85,80,64,30.12,29.83,18,2,18,0.00
2013-9-8,71.8,60.8,55.4,62.6,55.7,51.0,86,83,71,30.16,29.93,19,4,19,0.00
2013-9-9,63.2,60.3,57.8,56.1,54.2,52.3,86,80,78,29.93,29.67,15,1,15,0.22
2013-9-10,78.5,67.0,59.9,68.6,60.3,53.0,85,79,69,29.91,29.71,15,1,16,0.02
2013-9-11,81.5,65.8,55.6,65.4,55.5,49.5,85,71,42,30.03,29.90,27,3,27,0.04
2013-9-12,71.5,58.9,48.2,54.4,49.6,43.5,85,73,48,30.25,30.03,18,3,21,0.00
2013-9-13,70.8,56.1,45.6,53.7,47.4,41.4,85,74,50,30.29,30.07,10,1,11,0.00
2013-9-14,70.8,58.6,46.6,58.3,51.3,42.2,86,77,62,30.07,29.88,21,2,21,0.01
2013-9-15,64.9,53.4,41.3,53.8,48.0,36.8,86,82,62,30.34,29.94,21,2,26,0.03
2013-9-16,72.3,52.9,41.3,54.2,44.3,36.8,84,74,43,30.45,30.27,9,1,9,0.00
2013-9-17,74.0,60.2,52.1,58.5,51.1,47.0,84,73,53,30.28,29.97,13,2,13,0.00
2013-9-18,61.8,59.1,56.6,55.4,53.1,50.6,86,80,77,29.98,29.76,11,2,11,0.04
2013-9-19,63.4,61.2,59.7,57.1,54.2,52.8,80,78,77,29.78,29.61,15,1,15,0.38
2013-9-20,65.2,58.4,49.2,56.8,51.9,44.6,85,79,59,29.85,29.65,23,4,23,0.00
2013-9-21,69.8,51.4,39.0,53.9,43.0,34.5,89,74,49,30.01,29.85,12,1,12,0.01
2013-9-22,64.8,51.5,39.8,50.7,44.0,34.8,85,76,56,30.08,29.98,20,4,20,0.00
2013-9-23,70.3,55.9,44.7,56.3,48.5,38.9,84,77,60,30.02,29.95,19,3,19,0.00
2013-9-24,74.8,56.5,45.5,60.2,48.8,39.4,84,76,56,30.03,29.96,13,1,13,0.00
2013-9-25,61.8,53.3,47.6,56.3,47.7,41.8,86,81,78,30.03,29.96,17,3,17,0.00
2013-9-26,67.3,57.6,53.0,58.4,51.3,46.0,84,79,72,30.04,29.95,23,5,23,0.00
2013-9-27,67.8,60.7,54.2,60.0,55.0,48.4,84,82,75,30.00,29.84,13,1,13,0.00
2013-9-28,67.9,58.8,47.6,60.7,53.4,43.0,85,82,75,29.86,29.54,16,1,16,0.43
2013-9-29,76.5,54.3,40.6,60.0,46.5,34.9,84,76,52,29.93,29.80,13,1,13,0.00
2013-9-30,74.8,60.3,48.4,59.5,51.4,42.7,83,73,54,29.80,29.59,16,1,16,0.00
2013-10-1,75.5,62.2,50.2,57.5,46.0,38.1,83,60,29,29.90,29.53,25,3,25,0.00
2013-10-2,80.0,58.2,47.2,54.9,46.0,39.7,82,66,37,30.04,29.90,14,1,15,0.17
2013-10-3,60.7,53.9,51.5,55.0,48.5,45.8,84,82,79,30.07,29.96,18,4,18,0.12
2013-10-4,56.1,53.2,51.1,51.0,48.0,45.1,85,82,79,30.16,30.06,31,9,31,0.05
2013-10-5,52.2,47.5,46.2,47.5,41.3,39.5,85,79,77,30.12,29.79,39,13,39,1.12
2013-10-6,56.1,48.5,39.8,51.0,42.9,34.4,85,81,77,29.81,29.69,26,4,26,0.12
2013-10-7,66.6,51.1,39.5,51.7,42.0,33.6,85,73,46,29.98,29.76,16,3,16,0.00
2013-10-8,68.3,50.2,37.5,54.1,43.5,32.2,84,78,60,29.99,29.80,15,2,15,0.00
2013-10-9,77.5,59.6,48.0,59.6,50.5,42.5,84,73,51,30.06,29.89,13,1,13,0.00
2013-10-10,69.8,54.8,44.5,57.1,47.4,38.4,83,76,61,30.07,29.96,16,2,16,0.00
2013-10-11,67.5,57.7,49.9,56.6,51.2,44.8,84,79,68,29.98,29.67,23,4,23,0.00
2013-10-12,64.4,56.2,49.5,56.3,49.2,44.5,84,77,67,30.05,29.64,23,5,23,0.00
2013-10-13,61.9,48.7,38.5,47.3,39.9,34.1,85,73,43,30.42,30.05,14,1,14,0.00
2013-10-14,53.4,45.9,37.8,46.9,40.7,33.4,85,82,77,30.45,30.19,19,2,21,0.03
2013-10-15,50.1,46.8,43.7,45.5,40.4,37.1,84,78,76,30.19,29.81,30,9,30,1.35
2013-10-16,55.1,46.2,40.6,44.8,39.7,35.5,85,78,62,29.94,29.85,14,2,14,0.00
2013-10-17,49.1,43.3,35.3,43.1,38.1,30.3,85,82,79,29.86,29.79,8,0,8,0.19
2013-10-18,52.6,43.8,37.8,40.6,36.3,32.4,85,76,52,29.93,29.82,16,2,16,0.01
2013-10-19,51.2,39.6,33.7,45.7,34.8,28.6,85,83,77,29.82,29.68,8,1,13,0.19
2013-10-20,44.4,36.6,31.6,39.8,31.7,26.5,88,82,79,29.79,29.74,14,1,14,0.16
2013-10-21,40.1,35.1,31.0,32.6,30.1,25.9,86,82,69,29.89,29.77,21,6,26,0.00
2013-10-22,43.9,34.5,28.0,36.2,28.8,24.2,86,80,66,30.04,29.89,12,2,12,0.00
2013-10-23,41.2,35.1,31.0,30.2,28.4,26.1,85,77,62,30.07,29.95,18,4,18,0.00
2013-10-24,46.4,36.2,29.0,32.6,29.4,25.2,86,77,54,30.28,30.06,20,3,20,0.00
2013-10-25,49.2,38.5,25.7,40.7,31.5,21.6,92,76,62,30.28,29.65,27,4,28,0.00
2013-10-26,49.4,41.5,35.6,39.0,34.3,30.4,85,76,57,30.05,29.70,17,4,19,0.00
2013-10-27,53.4,39.9,31.0,37.5,31.5,23.0,82,72,54,30.32,29.80,18,3,18,0.00
2013-10-28,47.6,32.9,27.6,31.5,23.9,18.6,83,70,52,30.57,30.32,16,3,16,0.00
2013-10-29,38.8,33.5,27.7,32.2,28.2,23.2,85,81,67,30.53,30.20,9,1,9,0.00
2013-10-30,43.5,40.4,35.5,39.0,35.1,31.1,85,81,77,30.20,29.72,13,2,13,0.15
2013-10-31,47.1,44.6,42.6,40.3,38.0,36.1,82,78,77,29.72,29.34,14,1,14,0.06
2013-11-1,45.0,41.4,37.1,40.0,37.1,33.1,86,84,79,29.83,29.34,18,2,18,0.00
2013-11-2,52.4,39.2,30.7,37.8,32.6,26.4,86,78,56,30.15,29.83,13,2,13,0.00
2013-11-3,50.9,38.6,27.0,41.0,32.0,22.2,84,77,65,30.20,30.03,18,2,18,0.00
2013-11-4,47.1,43.7,35.7,40.8,37.7,31.7,86,79,73,30.10,29.84,18,2,18,0.40
2013-11-5,40.2,35.6,30.3,31.8,29.5,26.1,86,79,67,30.24,30.09,17,2,17,0.00
2013-11-6,39.4,33.9,31.7,28.6,25.2,22.9,81,70,57,30.16,30.02,14,3,21,0.00
2013-11-7,39.7,32.9,24.5,28.4,23.9,19.4,82,70,54,30.20,30.15,13,2,13,0.00
2013-11-8,42.4,32.9,21.6,34.7,27.3,17.2,86,80,69,30.21,29.68,17,3,17,0.11
2013-11-9,40.7,37.2,35.7,36.3,32.6,29.8,86,83,79,30.09,29.61,24,5,24,0.06
2013-11-10,42.7,37.1,27.9,32.6,29.6,20.7,86,75,57,30.28,30.08,21,4,21,0.01
2013-11-11,28.6,21.5,14.4,20.4,11.7,7.3,78,66,51,30.74,30.16,33,7,33,0.00
2013-11-12,32.6,22.3,13.2,12.8,10.1,7.3,79,61,38,30.77,30.40,19,4,21,0.00
2013-11-13,47.2,34.0,24.0,33.4,24.8,12.8,82,69,56,30.40,29.78,24,5,24,0.00
2013-11-14,46.9,38.8,34.4,37.7,33.2,29.5,85,80,68,29.83,29.74,6,0,6,0.00
2013-11-15,51.9,38.3,32.1,40.4,33.0,26.9,88,81,64,29.83,29.70,13,1,13,0.00
2013-11-16,47.1,41.6,32.4,42.5,36.3,27.2,85,81,77,29.70,29.31,10,1,10,0.21
2013-11-17,44.4,40.1,31.9,40.0,34.3,25.3,86,80,75,29.65,29.27,30,5,30,0.03
2013-11-18,31.9,29.1,23.1,25.5,21.8,17.8,80,74,69,30.30,29.65,23,6,27,0.00
2013-11-19,43.2,31.7,20.9,31.5,24.7,17.0,86,75,62,30.34,29.96,20,4,20,0.00
2013-11-20,44.4,42.7,38.6,34.3,32.0,29.4,83,66,57,30.08,29.92,21,4,21,0.00
2013-11-21,38.6,31.4,22.2,34.0,24.8,14.6,85,76,68,30.56,30.07,21,4,21,0.00
2013-11-22,30.2,19.7,11.3,18.7,11.8,4.1,84,72,43,30.66,30.42,21,4,21,0.00
2013-11-23,18.1,10.4,4.0,5.1,1.0,-1.6,78,65,51,30.85,30.66,22,5,22,0.00
2013-11-24,33.1,19.8,4.2,22.6,11.0,-1.2,80,69,57,30.76,29.81,32,6,32,0.00
2013-11-25,39.3,33.9,24.7,30.1,25.3,19.0,79,71,63,30.03,29.76,23,6,24,0.00
2013-11-26,24.5,16.0,12.8,20.2,7.8,3.9,92,70,58,30.42,30.03,27,7,27,0.00
2013-11-27,26.6,19.4,11.4,21.0,14.1,6.4,92,80,69,30.42,30.18,19,2,19,0.00
2013-11-28,28.2,21.1,14.5,19.4,16.0,9.7,86,80,68,30.56,30.17,12,3,13,0.01
2013-11-29,29.9,21.7,11.8,23.3,16.1,7.2,86,79,72,30.59,30.21,16,2,18,0.00
2013-11-30,40.7,31.5,27.8,29.8,25.3,22.8,83,78,63,30.22,30.07,16,2,16,0.03
2013-12-1,30.9,29.1,27.4,26.9,24.6,21.5,89,83,78,30.23,30.01,8,1,8,0.00
2013-12-2,33.4,30.2,26.4,28.5,25.1,21.2,86,81,78,30.01,29.81,20,5,20,0.00
2013-12-3,32.8,31.2,25.3,28.2,26.1,21.1,92,81,77,30.00,29.81,34,13,35,0.00
2013-12-4,32.8,30.2,24.2,26.7,24.6,18.5,84,80,78,29.98,29.37,36,10,36,0.01
2013-12-5,24.0,12.6,2.7,18.7,7.9,-2.0,87,81,76,30.25,29.44,21,2,22,0.00
2013-12-6,7.8,0.5,-5.3,0.9,-4.8,-10.5,80,78,71,30.64,30.25,19,5,19,0.00
2013-12-7,1.2,-6.9,-12.6,-5.9,-12.3,-17.5,81,77,69,30.72,30.64,16,2,16,0.00
2013-12-8,14.9,2.0,-11.4,11.7,-2.1,-16.5,92,83,77,30.65,30.11,18,1,18,0.00
2013-12-9,11.4,1.1,-6.6,7.9,-3.7,-11.4,86,80,69,30.11,29.94,21,3,21,0.00
2013-12-10,5.1,-2.1,-11.0,-1.8,-7.0,-14.9,84,79,70,30.32,29.92,10,3,18,0.00
2013-12-11,0.6,-6.8,-12.9,-7.1,-12.4,-18.0,84,76,68,30.56,30.32,15,2,15,0.00
2013-12-12,9.9,4.1,-6.5,4.7,-1.4,-11.6,92,78,72,30.40,30.25,13,2,14,0.00
2013-12-13,9.9,2.8,-2.4,1.1,-4.4,-8.6,79,71,62,30.50,30.32,11,3,11,0.00
2013-12-14,17.1,11.8,1.3,13.6,7.6,-4.2,86,83,76,30.47,30.06,16,3,18,0.00
2013-12-15,3.6,-4.0,-10.7,-4.2,-10.0,-16.1,81,75,66,30.25,30.07,23,3,23,0.00
2013-12-16,9.6,6.0,-2.8,6.5,2.3,-7.3,92,84,81,30.23,29.87,14,3,14,0.00
2013-12-17,24.8,13.7,2.9,20.1,8.8,-2.7,87,81,70,30.13,29.83,19,3,19,0.00
2013-12-18,23.8,11.1,-0.2,17.7,6.4,-5.5,86,81,73,30.13,29.73,17,2,17,0.00
2013-12-19,18.1,13.0,5.9,12.0,7.1,0.8,86,77,66,30.26,29.87,13,2,13,0.00
2013-12-20,24.0,16.1,9.4,18.5,12.1,5.6,86,84,76,30.22,29.93,10,2,10,0.00
2013-12-21,24.3,19.9,13.7,18.8,15.7,10.3,87,83,75,30.12,29.92,16,2,16,0.00
2013-12-22,19.1,13.9,6.7,15.5,10.1,2.8,92,84,81,30.30,30.08,16,4,16,0.00
2013-12-23,8.1,2.9,-2.0,3.7,-1.9,-6.9,94,80,76,30.56,30.30,16,4,16,0.00
2013-12-24,14.1,6.6,-4.5,10.2,2.9,-8.2,97,85,77,30.54,30.19,19,3,19,0.00
2013-12-25,19.7,13.3,3.7,17.0,9.0,-0.8,92,83,76,30.19,30.07,18,2,18,0.00
2013-12-26,14.2,5.9,-2.4,8.2,1.4,-6.0,87,81,72,30.27,30.16,8,1,8,0.00
2013-12-27,36.7,25.3,8.5,31.5,21.4,5.2,87,85,79,30.25,29.81,18,2,18,0.00
2013-12-28,33.1,27.0,9.9,29.1,23.0,5.2,87,85,81,30.14,29.80,26,4,27,0.00
2013-12-29,9.9,-4.5,-15.3,5.2,-11.1,-20.7,81,73,62,30.37,30.14,20,4,20,0.00
2013-12-30,1.5,-9.3,-16.2,-7.3,-15.3,-21.2,81,74,63,30.38,30.28,11,1,11,0.00
2013-12-31,-2.8,-11.8,-16.9,-12.3,-18.0,-21.8,83,73,61,30.58,30.25,16,2,16,0.00
2014-1-1,3.5,-6.8,-15.6,-8.9,-15.0,-22.0,75,67,54,30.66,30.57,14,3,14,0.00
2014-1-2,9.1,-4.0,-10.9,-4.4,-13.8,-18.8,76,62,48,30.60,30.44,14,4,14,0.00